createdAt,value
2018-12-17T00:00:13.557Z,1005.4
2018-12-17T00:01:15.574Z,1005.4
2018-12-17T00:02:17.658Z,1005.3
2018-12-17T00:03:19.672Z,1005.3
2018-12-17T00:04:21.697Z,1005.3
2018-12-17T00:05:23.726Z,1005.3
2018-12-17T00:06:25.742Z,1005.3
2018-12-17T00:07:27.755Z,1005.3
2018-12-17T00:08:32.436Z,1005.3
2018-12-17T00:09:34.466Z,1005.3
2018-12-17T00:10:36.487Z,1005.4
2018-12-17T00:11:38.513Z,1005.3
2018-12-17T00:12:40.544Z,1005.3
2018-12-17T00:13:42.557Z,1005.3
2018-12-17T00:14:44.583Z,1005.3
2018-12-17T00:15:46.607Z,1005.2
2018-12-17T00:16:48.696Z,1005.2
2018-12-17T00:17:51.002Z,1005.3
2018-12-17T00:18:53.031Z,1005.3
2018-12-17T00:19:55.040Z,1005.3
2018-12-17T00:20:57.057Z,1005.3
2018-12-17T00:21:59.085Z,1005.3
2018-12-17T00:23:01.390Z,1005.3
2018-12-17T00:24:03.720Z,1005.3
2018-12-17T00:25:05.815Z,1005.3
2018-12-17T00:26:07.826Z,1005.3
2018-12-17T00:27:09.849Z,1005.3
2018-12-17T00:28:11.872Z,1005.3
2018-12-17T00:29:14.167Z,1005.4
2018-12-17T00:30:16.261Z,1005.3
2018-12-17T00:31:18.588Z,1005.4
2018-12-17T00:32:20.597Z,1005.4
2018-12-17T00:33:22.701Z,1005.4
2018-12-17T00:34:24.724Z,1005.4
2018-12-17T00:35:26.824Z,1005.3
2018-12-17T00:36:28.837Z,1005.4
2018-12-17T00:37:30.865Z,1005.5
2018-12-17T00:38:32.883Z,1005.5
2018-12-17T00:39:34.901Z,1005.5
2018-12-17T00:40:36.928Z,1005.5
2018-12-17T00:41:38.944Z,1005.5
2018-12-17T00:42:40.989Z,1005.5
2018-12-17T00:43:43.288Z,1005.5
2018-12-17T00:44:46.959Z,1005.5
2018-12-17T00:45:48.993Z,1005.6
2018-12-17T00:46:51.011Z,1005.6
2018-12-17T00:47:53.032Z,1005.6
2018-12-17T00:48:55.055Z,1005.6
2018-12-17T00:49:57.065Z,1005.5
2018-12-17T00:50:59.480Z,1005.5
2018-12-17T00:52:01.776Z,1005.5
2018-12-17T00:53:03.793Z,1005.6
2018-12-17T00:54:05.815Z,1005.5
2018-12-17T00:55:07.834Z,1005.5
2018-12-17T00:56:09.848Z,1005.6
2018-12-17T00:57:11.891Z,1005.6
2018-12-17T00:58:15.567Z,1005.6
2018-12-17T00:59:17.583Z,1005.5
2018-12-17T01:00:19.615Z,1005.6
2018-12-17T01:01:21.644Z,1005.6
2018-12-17T01:02:23.659Z,1005.6
2018-12-17T01:03:25.684Z,1005.6
2018-12-17T01:04:27.708Z,1005.6
2018-12-17T01:05:29.999Z,1005.6
2018-12-17T01:06:32.035Z,1005.6
2018-12-17T01:07:34.046Z,1005.6
2018-12-17T01:08:36.065Z,1005.6
2018-12-17T01:09:38.366Z,1005.6
2018-12-17T01:10:40.395Z,1005.6
2018-12-17T01:11:42.408Z,1005.6
2018-12-17T01:12:44.424Z,1005.6
2018-12-17T01:13:46.455Z,1005.6
2018-12-17T01:14:48.467Z,1005.6
2018-12-17T01:15:50.498Z,1005.7
2018-12-17T01:16:52.519Z,1005.7
2018-12-17T01:17:54.547Z,1005.7
2018-12-17T01:18:56.838Z,1005.7
2018-12-17T01:19:58.859Z,1005.7
2018-12-17T01:21:00.877Z,1005.7
2018-12-17T01:22:03.569Z,1005.7
2018-12-17T01:23:05.607Z,1005.7
2018-12-17T01:24:07.617Z,1005.8
2018-12-17T01:25:09.634Z,1005.8
2018-12-17T01:26:11.660Z,1005.8
2018-12-17T01:27:13.740Z,1005.8
2018-12-17T01:28:22.544Z,1005.8
2018-12-17T01:29:24.586Z,1005.9
2018-12-17T01:30:26.637Z,1005.8
2018-12-17T01:31:28.664Z,1005.9
2018-12-17T01:32:30.737Z,1005.8
2018-12-17T01:33:32.755Z,1005.9
2018-12-17T01:34:34.769Z,1005.9
2018-12-17T01:35:36.795Z,1006
2018-12-17T01:36:38.809Z,1006
2018-12-17T01:37:40.825Z,1006
2018-12-17T01:38:42.858Z,1006
2018-12-17T01:39:44.879Z,1006
2018-12-17T01:40:46.902Z,1006
2018-12-17T01:41:49.315Z,1006
2018-12-17T01:42:51.627Z,1006
2018-12-17T01:43:53.634Z,1006
2018-12-17T01:44:55.658Z,1006
2018-12-17T01:45:57.726Z,1006
2018-12-17T01:46:59.737Z,1006
2018-12-17T01:48:01.773Z,1006
2018-12-17T01:49:03.788Z,1005.9
2018-12-17T01:50:05.814Z,1006
2018-12-17T01:51:07.827Z,1005.9
2018-12-17T01:52:09.858Z,1006
2018-12-17T01:53:11.874Z,1006
2018-12-17T01:54:13.898Z,1005.9
2018-12-17T01:55:15.919Z,1006
2018-12-17T01:56:17.923Z,1005.9
2018-12-17T01:57:19.950Z,1005.9
2018-12-17T01:58:28.968Z,1005.8
2018-12-17T01:59:31.342Z,1005.9
2018-12-17T02:00:33.364Z,1005.9
2018-12-17T02:01:35.377Z,1005.9
2018-12-17T02:02:37.789Z,1005.9
2018-12-17T02:03:39.806Z,1006
2018-12-17T02:04:41.823Z,1006
2018-12-17T02:05:43.848Z,1005.9
2018-12-17T02:06:45.869Z,1005.9
2018-12-17T02:07:47.879Z,1005.9
2018-12-17T02:08:49.994Z,1006
2018-12-17T02:09:52.009Z,1006
2018-12-17T02:10:54.414Z,1006
2018-12-17T02:11:56.448Z,1005.9
2018-12-17T02:12:58.456Z,1005.9
2018-12-17T02:14:00.476Z,1005.9
2018-12-17T02:15:02.494Z,1006
2018-12-17T02:16:05.183Z,1006
2018-12-17T02:17:07.524Z,1006
2018-12-17T02:18:09.839Z,1006
2018-12-17T02:19:11.863Z,1006
2018-12-17T02:20:13.970Z,1006
2018-12-17T02:21:16.005Z,1006
2018-12-17T02:22:18.016Z,1006
2018-12-17T02:23:20.348Z,1006
2018-12-17T02:24:22.363Z,1006
2018-12-17T02:25:24.458Z,1006.1
2018-12-17T02:26:26.475Z,1006.1
2018-12-17T02:27:28.499Z,1006
2018-12-17T02:28:36.557Z,1006
2018-12-17T02:29:38.576Z,1006
2018-12-17T02:30:41.181Z,1006
2018-12-17T02:31:43.231Z,1006
2018-12-17T02:32:45.253Z,1006.1
2018-12-17T02:33:47.272Z,1006
2018-12-17T02:34:49.367Z,1006
2018-12-17T02:35:51.421Z,1006
2018-12-17T02:36:53.711Z,1006
2018-12-17T02:37:55.728Z,1006
2018-12-17T02:38:57.753Z,1005.9
2018-12-17T02:39:59.777Z,1006
2018-12-17T02:41:01.795Z,1006
2018-12-17T02:42:03.842Z,1006
2018-12-17T02:43:05.856Z,1006
2018-12-17T02:44:07.876Z,1006
2018-12-17T02:45:09.908Z,1006.1
2018-12-17T02:46:11.933Z,1006
2018-12-17T02:47:14.255Z,1006
2018-12-17T02:48:16.286Z,1006
2018-12-17T02:49:18.387Z,1006
2018-12-17T02:50:20.403Z,1006.1
2018-12-17T02:51:22.832Z,1006
2018-12-17T02:52:24.863Z,1006
2018-12-17T02:53:27.567Z,1006
2018-12-17T02:54:29.608Z,1006.1
2018-12-17T02:55:31.978Z,1006
2018-12-17T02:56:34.293Z,1006
2018-12-17T02:57:36.619Z,1006
2018-12-17T02:58:44.320Z,1006
2018-12-17T02:59:46.358Z,1006
2018-12-17T03:00:48.690Z,1006
2018-12-17T03:01:50.716Z,1006.1
2018-12-17T03:02:53.104Z,1006
2018-12-17T03:03:55.166Z,1006.1
2018-12-17T03:04:57.567Z,1006.1
2018-12-17T03:06:00.177Z,1006.1
2018-12-17T03:07:02.201Z,1006.1
2018-12-17T03:08:04.509Z,1006.2
2018-12-17T03:09:06.813Z,1006.2
2018-12-17T03:10:09.438Z,1006.2
2018-12-17T03:11:11.468Z,1006.2
2018-12-17T03:12:13.478Z,1006.2
2018-12-17T03:13:15.632Z,1006.2
2018-12-17T03:14:18.058Z,1006.2
2018-12-17T03:15:20.654Z,1006.2
2018-12-17T03:16:22.675Z,1006.1
2018-12-17T03:17:24.697Z,1006.1
2018-12-17T03:18:26.731Z,1006.2
2018-12-17T03:19:28.742Z,1006.2
2018-12-17T03:20:31.047Z,1006.2
2018-12-17T03:21:33.073Z,1006.2
2018-12-17T03:22:35.174Z,1006.1
2018-12-17T03:23:37.469Z,1006.1
2018-12-17T03:24:39.779Z,1006.1
2018-12-17T03:25:42.386Z,1006.1
2018-12-17T03:26:44.399Z,1006.2
2018-12-17T03:27:46.432Z,1006.1
2018-12-17T03:28:52.193Z,1006.2
2018-12-17T03:29:54.247Z,1006.1
2018-12-17T03:30:56.269Z,1006.2
2018-12-17T03:31:58.473Z,1006.2
2018-12-17T03:33:00.891Z,1006.2
2018-12-17T03:34:03.785Z,1006.2
2018-12-17T03:35:06.122Z,1006.2
2018-12-17T03:36:08.147Z,1006.3
2018-12-17T03:37:10.452Z,1006.3
2018-12-17T03:38:12.856Z,1006.3
2018-12-17T03:39:14.874Z,1006.3
2018-12-17T03:40:17.216Z,1006.3
2018-12-17T03:41:19.242Z,1006.3
2018-12-17T03:42:21.288Z,1006.3
2018-12-17T03:43:23.622Z,1006.4
2018-12-17T03:44:25.642Z,1006.3
2018-12-17T03:45:28.039Z,1006.4
2018-12-17T03:46:30.060Z,1006.3
2018-12-17T03:47:32.095Z,1006.3
2018-12-17T03:48:34.486Z,1006.4
2018-12-17T03:49:36.520Z,1006.4
2018-12-17T03:50:38.933Z,1006.4
2018-12-17T03:51:40.947Z,1006.4
2018-12-17T03:52:42.980Z,1006.4
2018-12-17T03:53:45.015Z,1006.4
2018-12-17T03:54:47.346Z,1006.4
2018-12-17T03:55:49.365Z,1006.4
2018-12-17T03:56:51.400Z,1006.4
2018-12-17T03:57:53.416Z,1006.4
2018-12-17T03:58:59.647Z,1006.4
2018-12-17T04:00:01.976Z,1006.4
2018-12-17T04:01:03.991Z,1006.5
2018-12-17T04:02:06.028Z,1006.5
2018-12-17T04:03:08.073Z,1006.5
2018-12-17T04:04:10.413Z,1006.5
2018-12-17T04:05:13.100Z,1006.5
2018-12-17T04:06:15.130Z,1006.5
2018-12-17T04:07:17.153Z,1006.4
2018-12-17T04:08:19.163Z,1006.4
2018-12-17T04:09:21.781Z,1006.4
2018-12-17T04:10:23.805Z,1006.4
2018-12-17T04:11:25.824Z,1006.4
2018-12-17T04:12:28.136Z,1006.4
2018-12-17T04:13:30.157Z,1006.4
2018-12-17T04:14:32.184Z,1006.5
2018-12-17T04:15:34.218Z,1006.5
2018-12-17T04:16:36.241Z,1006.5
2018-12-17T04:17:38.270Z,1006.7
2018-12-17T04:18:40.303Z,1006.7
2018-12-17T04:19:42.328Z,1006.6
2018-12-17T04:20:44.339Z,1006.5
2018-12-17T04:21:46.372Z,1006.5
2018-12-17T04:22:48.428Z,1006.5
2018-12-17T04:23:50.747Z,1006.5
2018-12-17T04:24:52.785Z,1006.6
2018-12-17T04:25:54.789Z,1006.6
2018-12-17T04:26:56.814Z,1006.6
2018-12-17T04:27:59.225Z,1006.6
2018-12-17T04:29:07.339Z,1006.6
2018-12-17T04:30:09.653Z,1006.7
2018-12-17T04:31:11.678Z,1006.7
2018-12-17T04:32:13.695Z,1006.6
2018-12-17T04:33:15.727Z,1006.7
2018-12-17T04:34:18.119Z,1006.7
2018-12-17T04:35:20.157Z,1006.7
2018-12-17T04:36:22.194Z,1006.7
2018-12-17T04:37:24.214Z,1006.7
2018-12-17T04:38:26.228Z,1006.8
2018-12-17T04:39:28.261Z,1006.8
2018-12-17T04:40:30.319Z,1006.8
2018-12-17T04:41:32.628Z,1006.7
2018-12-17T04:42:34.670Z,1006.7
2018-12-17T04:43:36.964Z,1006.7
2018-12-17T04:44:38.988Z,1006.7
2018-12-17T04:45:41.095Z,1006.7
2018-12-17T04:46:43.502Z,1006.7
2018-12-17T04:47:45.899Z,1006.7
2018-12-17T04:48:47.927Z,1006.8
2018-12-17T04:49:50.618Z,1006.8
2018-12-17T04:50:52.666Z,1006.8
2018-12-17T04:51:55.081Z,1006.8
2018-12-17T04:52:57.383Z,1006.8
2018-12-17T04:53:59.786Z,1006.8
2018-12-17T04:55:01.819Z,1006.8
2018-12-17T04:56:03.843Z,1006.8
2018-12-17T04:57:05.872Z,1006.9
2018-12-17T04:58:07.926Z,1006.9
2018-12-17T04:59:15.039Z,1006.9
2018-12-17T05:00:17.350Z,1006.9
2018-12-17T05:01:19.447Z,1006.9
2018-12-17T05:02:21.490Z,1006.8
2018-12-17T05:03:23.505Z,1006.8
2018-12-17T05:04:25.530Z,1006.9
2018-12-17T05:05:27.558Z,1006.9
2018-12-17T05:06:29.854Z,1006.9
2018-12-17T05:07:32.269Z,1006.9
2018-12-17T05:08:34.294Z,1007
2018-12-17T05:09:36.699Z,1006.9
2018-12-17T05:10:39.106Z,1006.9
2018-12-17T05:11:41.200Z,1007
2018-12-17T05:12:43.232Z,1007
2018-12-17T05:13:45.326Z,1007
2018-12-17T05:14:47.637Z,1007
2018-12-17T05:15:50.647Z,1007
2018-12-17T05:16:52.953Z,1007
2018-12-17T05:17:54.972Z,1007
2018-12-17T05:18:57.010Z,1007
2018-12-17T05:19:59.329Z,1007
2018-12-17T05:21:01.420Z,1007.1
2018-12-17T05:22:03.455Z,1007.1
2018-12-17T05:23:05.468Z,1007.1
2018-12-17T05:24:07.490Z,1007
2018-12-17T05:25:09.853Z,1007
2018-12-17T05:26:12.187Z,1007
2018-12-17T05:27:14.202Z,1007.1
2018-12-17T05:28:16.239Z,1007.2
2018-12-17T05:29:21.908Z,1007.2
2018-12-17T05:30:23.925Z,1007.2
2018-12-17T05:31:25.963Z,1007.2
2018-12-17T05:32:28.249Z,1007.3
2018-12-17T05:33:30.280Z,1007.3
2018-12-17T05:34:32.322Z,1007.3
2018-12-17T05:35:34.645Z,1007.2
2018-12-17T05:36:36.948Z,1007.3
2018-12-17T05:37:39.362Z,1007.3
2018-12-17T05:38:41.395Z,1007.3
2018-12-17T05:39:43.793Z,1007.3
2018-12-17T05:40:45.826Z,1007.3
2018-12-17T05:41:48.138Z,1007.3
2018-12-17T05:42:50.168Z,1007.3
2018-12-17T05:43:52.193Z,1007.3
2018-12-17T05:44:54.515Z,1007.3
2018-12-17T05:45:56.535Z,1007.3
2018-12-17T05:46:59.128Z,1007.3
2018-12-17T05:48:01.148Z,1007.3
2018-12-17T05:49:04.160Z,1007.4
2018-12-17T05:50:06.184Z,1007.4
2018-12-17T05:51:08.598Z,1007.4
2018-12-17T05:52:10.643Z,1007.4
2018-12-17T05:53:12.694Z,1007.5
2018-12-17T05:54:14.798Z,1007.5
2018-12-17T05:55:16.891Z,1007.5
2018-12-17T05:56:18.906Z,1007.5
2018-12-17T05:57:20.932Z,1007.5
2018-12-17T05:58:23.360Z,1007.6
2018-12-17T05:59:28.919Z,1007.6
2018-12-17T06:00:30.934Z,1007.6
2018-12-17T06:01:33.243Z,1007.6
2018-12-17T06:02:35.276Z,1007.7
2018-12-17T06:03:37.289Z,1007.7
2018-12-17T06:04:39.602Z,1007.8
2018-12-17T06:05:42.282Z,1007.8
2018-12-17T06:06:44.306Z,1007.7
2018-12-17T06:07:46.731Z,1007.7
2018-12-17T06:08:48.759Z,1007.8
2018-12-17T06:09:50.846Z,1007.8
2018-12-17T06:10:52.869Z,1007.8
2018-12-17T06:11:54.887Z,1007.8
2018-12-17T06:12:56.896Z,1007.8
2018-12-17T06:13:58.929Z,1007.9
2018-12-17T06:15:00.941Z,1007.9
2018-12-17T06:16:03.245Z,1007.9
2018-12-17T06:17:05.264Z,1007.9
2018-12-17T06:18:07.288Z,1008
2018-12-17T06:19:09.310Z,1008
2018-12-17T06:20:11.335Z,1008
2018-12-17T06:21:13.362Z,1008.1
2018-12-17T06:22:15.363Z,1008
2018-12-17T06:23:18.068Z,1008
2018-12-17T06:24:20.086Z,1008
2018-12-17T06:25:22.093Z,1008.1
2018-12-17T06:26:24.197Z,1008.1
2018-12-17T06:27:26.610Z,1008.1
2018-12-17T06:28:29.006Z,1008.1
2018-12-17T06:29:35.879Z,1008.1
2018-12-17T06:30:38.191Z,1008.1
2018-12-17T06:31:40.208Z,1008.1
2018-12-17T06:32:42.517Z,1008.1
2018-12-17T06:33:44.616Z,1008.1
2018-12-17T06:34:46.626Z,1008.2
2018-12-17T06:35:48.653Z,1008.2
2018-12-17T06:36:50.676Z,1008.2
2018-12-17T06:37:52.985Z,1008.3
2018-12-17T06:38:55.027Z,1008.3
2018-12-17T06:39:57.056Z,1008.3
2018-12-17T06:40:59.071Z,1008.2
2018-12-17T06:42:01.769Z,1008.2
2018-12-17T06:43:03.807Z,1008.2
2018-12-17T06:44:05.820Z,1008.2
2018-12-17T06:45:07.840Z,1008.1
2018-12-17T06:46:09.878Z,1008.1
2018-12-17T06:47:11.883Z,1008.1
2018-12-17T06:48:17.564Z,1008.1
2018-12-17T06:49:19.604Z,1008.2
2018-12-17T06:50:21.628Z,1008.2
2018-12-17T06:51:23.640Z,1008.2
2018-12-17T06:52:25.669Z,1008.2
2018-12-17T06:53:27.680Z,1008.2
2018-12-17T06:54:29.704Z,1008.2
2018-12-17T06:55:31.736Z,1008.2
2018-12-17T06:56:33.763Z,1008.2
2018-12-17T06:57:35.789Z,1008.2
2018-12-17T06:58:37.814Z,1008.2
2018-12-17T06:59:43.121Z,1008.2
2018-12-17T07:00:45.139Z,1008.2
2018-12-17T07:01:47.163Z,1008.2
2018-12-17T07:02:49.482Z,1008.2
2018-12-17T07:03:51.503Z,1008.3
2018-12-17T07:04:53.510Z,1008.3
2018-12-17T07:05:55.534Z,1008.3
2018-12-17T07:06:57.561Z,1008.3
2018-12-17T07:07:59.569Z,1008.4
2018-12-17T07:09:01.596Z,1008.3
2018-12-17T07:10:03.623Z,1008.3
2018-12-17T07:11:05.720Z,1008.3
2018-12-17T07:12:08.045Z,1008.4
2018-12-17T07:13:10.060Z,1008.4
2018-12-17T07:14:12.082Z,1008.4
2018-12-17T07:15:14.482Z,1008.4
2018-12-17T07:16:16.509Z,1008.4
2018-12-17T07:17:18.534Z,1008.5
2018-12-17T07:18:20.546Z,1008.5
2018-12-17T07:19:22.655Z,1008.5
2018-12-17T07:20:24.660Z,1008.5
2018-12-17T07:21:27.360Z,1008.5
2018-12-17T07:22:29.389Z,1008.5
2018-12-17T07:23:31.700Z,1008.5
2018-12-17T07:24:33.710Z,1008.5
2018-12-17T07:25:35.739Z,1008.5
2018-12-17T07:26:37.836Z,1008.6
2018-12-17T07:27:39.856Z,1008.6
2018-12-17T07:28:42.195Z,1008.6
2018-12-17T07:29:50.160Z,1008.6
2018-12-17T07:30:52.181Z,1008.5
2018-12-17T07:31:54.222Z,1008.5
2018-12-17T07:32:56.525Z,1008.6
2018-12-17T07:33:58.540Z,1008.6
2018-12-17T07:35:00.956Z,1008.6
2018-12-17T07:36:03.032Z,1008.6
2018-12-17T07:37:05.053Z,1008.6
2018-12-17T07:38:07.083Z,1008.7
2018-12-17T07:39:09.103Z,1008.6
2018-12-17T07:40:11.130Z,1008.6
2018-12-17T07:41:13.700Z,1008.6
2018-12-17T07:42:15.726Z,1008.7
2018-12-17T07:43:17.751Z,1008.6
2018-12-17T07:44:19.763Z,1008.7
2018-12-17T07:45:21.796Z,1008.6
2018-12-17T07:46:24.099Z,1008.7
2018-12-17T07:47:26.120Z,1008.7
2018-12-17T07:48:28.140Z,1008.7
2018-12-17T07:49:30.168Z,1008.8
2018-12-17T07:50:32.182Z,1008.8
2018-12-17T07:51:34.212Z,1008.8
2018-12-17T07:52:36.243Z,1008.8
2018-12-17T07:53:38.260Z,1008.8
2018-12-17T07:54:40.293Z,1008.9
2018-12-17T07:55:42.314Z,1008.9
2018-12-17T07:56:44.335Z,1008.9
2018-12-17T07:57:46.345Z,1008.9
2018-12-17T07:58:48.365Z,1008.9
2018-12-17T07:59:57.100Z,1008.9
2018-12-17T08:00:59.414Z,1008.9
2018-12-17T08:02:01.452Z,1009
2018-12-17T08:03:03.508Z,1009
2018-12-17T08:04:06.087Z,1009
2018-12-17T08:05:08.580Z,1009
2018-12-17T08:06:10.596Z,1009
2018-12-17T08:07:12.911Z,1009
2018-12-17T08:08:14.945Z,1009.1
2018-12-17T08:09:16.962Z,1009
2018-12-17T08:10:19.266Z,1009.1
2018-12-17T08:11:21.308Z,1009
2018-12-17T08:12:23.345Z,1009
2018-12-17T08:13:25.831Z,1009
2018-12-17T08:14:27.919Z,1009
2018-12-17T08:15:30.324Z,1009
2018-12-17T08:16:32.383Z,1009.1
2018-12-17T08:17:34.399Z,1009.1
2018-12-17T08:18:36.445Z,1009.1
2018-12-17T08:19:38.834Z,1009.2
2018-12-17T08:20:41.246Z,1009.2
2018-12-17T08:21:43.261Z,1009.2
2018-12-17T08:22:45.292Z,1009.2
2018-12-17T08:23:47.587Z,1009.2
2018-12-17T08:24:49.605Z,1009.2
2018-12-17T08:25:52.457Z,1009.2
2018-12-17T08:26:54.465Z,1009.2
2018-12-17T08:27:56.500Z,1009.2
2018-12-17T08:28:58.915Z,1009.2
2018-12-17T08:30:04.437Z,1009.3
2018-12-17T08:31:06.451Z,1009.3
2018-12-17T08:32:08.477Z,1009.3
2018-12-17T08:33:10.783Z,1009.3
2018-12-17T08:34:12.805Z,1009.3
2018-12-17T08:35:14.843Z,1009.3
2018-12-17T08:36:17.140Z,1009.4
2018-12-17T08:37:19.161Z,1009.4
2018-12-17T08:38:21.203Z,1009.4
2018-12-17T08:39:23.273Z,1009.4
2018-12-17T08:40:25.295Z,1009.4
2018-12-17T08:41:27.318Z,1009.4
2018-12-17T08:42:29.331Z,1009.5
2018-12-17T08:43:31.351Z,1009.3
2018-12-17T08:44:33.768Z,1009.4
2018-12-17T08:45:35.833Z,1009.5
2018-12-17T08:46:37.850Z,1009.5
2018-12-17T08:47:40.164Z,1009.5
2018-12-17T08:48:42.468Z,1009.4
2018-12-17T08:49:44.482Z,1009.5
2018-12-17T08:50:46.509Z,1009.5
2018-12-17T08:51:48.541Z,1009.4
2018-12-17T08:52:50.631Z,1009.4
2018-12-17T08:53:53.711Z,1009.4
2018-12-17T08:54:55.739Z,1009.4
2018-12-17T08:55:57.752Z,1009.4
2018-12-17T08:56:59.781Z,1009.4
2018-12-17T08:58:01.858Z,1009.4
2018-12-17T08:59:05.169Z,1009.4
2018-12-17T09:00:11.451Z,1009.4
2018-12-17T09:01:13.565Z,1009.4
2018-12-17T09:02:15.595Z,1009.4
2018-12-17T09:03:17.614Z,1009.4
2018-12-17T09:04:19.653Z,1009.4
2018-12-17T09:05:21.675Z,1009.4
2018-12-17T09:06:23.699Z,1009.4
2018-12-17T09:07:25.722Z,1009.4
2018-12-17T09:08:27.795Z,1009.4
2018-12-17T09:09:30.108Z,1009.4
2018-12-17T09:10:32.131Z,1009.3
2018-12-17T09:11:34.149Z,1009.4
2018-12-17T09:12:36.175Z,1009.4
2018-12-17T09:13:38.206Z,1009.4
2018-12-17T09:14:40.229Z,1009.4
2018-12-17T09:15:42.263Z,1009.4
2018-12-17T09:16:44.286Z,1009.5
2018-12-17T09:17:46.293Z,1009.4
2018-12-17T09:18:48.395Z,1009.4
2018-12-17T09:19:50.439Z,1009.4
2018-12-17T09:20:52.453Z,1009.4
2018-12-17T09:21:54.478Z,1009.4
2018-12-17T09:22:56.504Z,1009.4
2018-12-17T09:23:58.519Z,1009.4
2018-12-17T09:25:00.557Z,1009.5
2018-12-17T09:26:02.583Z,1009.5
2018-12-17T09:27:04.619Z,1009.5
2018-12-17T09:28:06.919Z,1009.4
2018-12-17T09:29:08.952Z,1009.4
2018-12-17T09:30:18.033Z,1009.4
2018-12-17T09:31:20.595Z,1009.5
2018-12-17T09:32:22.629Z,1009.5
2018-12-17T09:33:25.038Z,1009.5
2018-12-17T09:34:27.045Z,1009.4
2018-12-17T09:35:29.072Z,1009.4
2018-12-17T09:36:31.089Z,1009.5
2018-12-17T09:37:33.118Z,1009.5
2018-12-17T09:38:35.143Z,1009.5
2018-12-17T09:39:37.177Z,1009.5
2018-12-17T09:40:39.201Z,1009.5
2018-12-17T09:41:41.488Z,1009.4
2018-12-17T09:42:44.181Z,1009.4
2018-12-17T09:43:46.205Z,1009.4
2018-12-17T09:44:48.226Z,1009.4
2018-12-17T09:45:50.630Z,1009.4
2018-12-17T09:46:52.662Z,1009.4
2018-12-17T09:47:55.065Z,1009.4
2018-12-17T09:48:57.379Z,1009.4
2018-12-17T09:49:59.409Z,1009.4
2018-12-17T09:51:01.426Z,1009.4
2018-12-17T09:52:03.522Z,1009.5
2018-12-17T09:53:05.943Z,1009.5
2018-12-17T09:54:08.237Z,1009.5
2018-12-17T09:55:10.266Z,1009.5
2018-12-17T09:56:12.291Z,1009.5
2018-12-17T09:57:14.301Z,1009.6
2018-12-17T09:58:16.337Z,1009.6
2018-12-17T09:59:18.632Z,1009.6
2018-12-17T10:00:25.890Z,1009.5
2018-12-17T10:01:28.287Z,1009.5
2018-12-17T10:02:30.330Z,1009.6
2018-12-17T10:03:32.347Z,1009.6
2018-12-17T10:04:34.658Z,1009.6
2018-12-17T10:05:36.746Z,1009.7
2018-12-17T10:06:38.752Z,1009.8
2018-12-17T10:07:40.789Z,1009.7
2018-12-17T10:08:42.827Z,1009.7
2018-12-17T10:09:44.854Z,1009.7
2018-12-17T10:10:46.875Z,1009.7
2018-12-17T10:11:48.905Z,1009.7
2018-12-17T10:12:50.920Z,1009.7
2018-12-17T10:13:53.507Z,1009.7
2018-12-17T10:14:55.541Z,1009.6
2018-12-17T10:15:57.558Z,1009.7
2018-12-17T10:16:59.866Z,1009.7
2018-12-17T10:18:01.898Z,1009.7
2018-12-17T10:19:03.922Z,1009.7
2018-12-17T10:20:05.939Z,1009.7
2018-12-17T10:21:08.033Z,1009.7
2018-12-17T10:22:10.328Z,1009.7
2018-12-17T10:23:12.398Z,1009.7
2018-12-17T10:24:14.433Z,1009.6
2018-12-17T10:25:16.455Z,1009.7
2018-12-17T10:26:18.765Z,1009.7
2018-12-17T10:27:21.080Z,1009.7
2018-12-17T10:28:23.161Z,1009.7
2018-12-17T10:29:25.201Z,1009.7
2018-12-17T10:30:32.958Z,1009.7
2018-12-17T10:31:34.976Z,1009.7
2018-12-17T10:32:37.001Z,1009.8
2018-12-17T10:33:39.024Z,1009.7
2018-12-17T10:34:41.078Z,1009.6
2018-12-17T10:35:43.408Z,1009.7
2018-12-17T10:36:45.436Z,1009.6
2018-12-17T10:37:47.458Z,1009.6
2018-12-17T10:38:49.475Z,1009.6
2018-12-17T10:39:51.792Z,1009.6
2018-12-17T10:40:53.810Z,1009.6
2018-12-17T10:41:55.838Z,1009.5
2018-12-17T10:42:57.859Z,1009.6
2018-12-17T10:43:59.982Z,1009.6
2018-12-17T10:45:02.315Z,1009.5
2018-12-17T10:46:04.345Z,1009.5
2018-12-17T10:47:06.375Z,1009.6
2018-12-17T10:48:08.662Z,1009.6
2018-12-17T10:49:10.688Z,1009.6
2018-12-17T10:50:12.713Z,1009.6
2018-12-17T10:51:15.126Z,1009.6
2018-12-17T10:52:17.442Z,1009.6
2018-12-17T10:53:19.744Z,1009.6
2018-12-17T10:54:22.030Z,1009.6
2018-12-17T10:55:27.954Z,1009.5
2018-12-17T10:56:30.848Z,1009.6
2018-12-17T10:57:41.185Z,1009.5
2018-12-17T10:58:43.250Z,1009.5
2018-12-17T10:59:45.268Z,1009.5
2018-12-17T11:00:47.302Z,1009.6
2018-12-17T11:01:49.703Z,1009.6
2018-12-17T11:02:51.726Z,1009.6
2018-12-17T11:03:54.054Z,1009.6
2018-12-17T11:04:56.074Z,1009.5
2018-12-17T11:05:58.376Z,1009.6
2018-12-17T11:07:00.396Z,1009.7
2018-12-17T11:08:02.712Z,1009.6
2018-12-17T11:09:05.024Z,1009.6
2018-12-17T11:10:07.050Z,1009.6
2018-12-17T11:11:09.069Z,1009.7
2018-12-17T11:12:11.181Z,1009.7
2018-12-17T11:13:13.247Z,1009.7
2018-12-17T11:14:15.261Z,1009.7
2018-12-17T11:15:17.275Z,1009.7
2018-12-17T11:16:19.293Z,1009.8
2018-12-17T11:17:21.331Z,1009.8
2018-12-17T11:18:23.350Z,1009.7
2018-12-17T11:19:25.776Z,1009.7
2018-12-17T11:20:27.799Z,1009.7
2018-12-17T11:21:29.829Z,1009.6
2018-12-17T11:22:32.143Z,1009.7
2018-12-17T11:23:34.169Z,1009.7
2018-12-17T11:24:36.895Z,1009.6
2018-12-17T11:25:38.927Z,1009.6
2018-12-17T11:26:40.961Z,1009.6
2018-12-17T11:27:42.983Z,1009.6
2018-12-17T11:28:45.018Z,1009.6
2018-12-17T11:29:47.039Z,1009.6
2018-12-17T11:30:49.054Z,1009.6
2018-12-17T11:31:51.082Z,1009.6
2018-12-17T11:32:53.163Z,1009.6
2018-12-17T11:33:55.185Z,1009.6
2018-12-17T11:34:57.214Z,1009.6
2018-12-17T11:35:59.246Z,1009.6
2018-12-17T11:37:01.269Z,1009.6
2018-12-17T11:38:03.319Z,1009.6
2018-12-17T11:39:05.404Z,1009.5
2018-12-17T11:40:07.508Z,1009.5
2018-12-17T11:41:09.531Z,1009.6
2018-12-17T11:42:11.561Z,1009.5
2018-12-17T11:43:13.856Z,1009.5
2018-12-17T11:44:15.883Z,1009.5
2018-12-17T11:45:17.919Z,1009.5
2018-12-17T11:46:20.210Z,1009.5
2018-12-17T11:47:22.247Z,1009.6
2018-12-17T11:48:24.271Z,1009.6
2018-12-17T11:49:26.305Z,1009.6
2018-12-17T11:50:28.319Z,1009.6
2018-12-17T11:51:30.633Z,1009.7
2018-12-17T11:52:32.661Z,1009.7
2018-12-17T11:53:35.351Z,1009.7
2018-12-17T11:54:37.386Z,1009.7
2018-12-17T11:55:39.400Z,1009.7
2018-12-17T11:56:41.720Z,1009.7
2018-12-17T11:57:44.424Z,1009.7
2018-12-17T11:58:46.446Z,1009.7
2018-12-17T11:59:48.465Z,1009.6
2018-12-17T12:00:54.387Z,1009.7
2018-12-17T12:01:56.788Z,1009.7
2018-12-17T12:02:59.533Z,1009.8
2018-12-17T12:04:01.572Z,1009.7
2018-12-17T12:05:03.598Z,1009.8
2018-12-17T12:06:05.626Z,1009.8
2018-12-17T12:07:15.589Z,1009.8
2018-12-17T12:08:17.610Z,1009.8
2018-12-17T12:09:19.635Z,1009.8
2018-12-17T12:10:21.648Z,1009.8
2018-12-17T12:11:24.384Z,1009.8
2018-12-17T12:12:26.429Z,1009.8
2018-12-17T12:13:28.457Z,1009.8
2018-12-17T12:14:30.771Z,1009.8
2018-12-17T12:15:32.853Z,1009.8
2018-12-17T12:16:34.873Z,1009.8
2018-12-17T12:17:36.907Z,1009.8
2018-12-17T12:18:38.943Z,1009.9
2018-12-17T12:19:40.953Z,1009.9
2018-12-17T12:20:42.984Z,1009.9
2018-12-17T12:21:45.062Z,1010
2018-12-17T12:22:47.504Z,1010
2018-12-17T12:23:49.524Z,1009.9
2018-12-17T12:24:51.853Z,1010
2018-12-17T12:25:53.867Z,1010
2018-12-17T12:26:55.886Z,1009.9
2018-12-17T12:27:58.201Z,1009.9
2018-12-17T12:29:00.216Z,1010
2018-12-17T12:30:02.297Z,1010
2018-12-17T12:31:04.902Z,1010
2018-12-17T12:32:06.930Z,1009.9
2018-12-17T12:33:08.947Z,1009.9
2018-12-17T12:34:11.261Z,1010
2018-12-17T12:35:13.343Z,1010
2018-12-17T12:36:15.371Z,1010
2018-12-17T12:37:17.686Z,1010
2018-12-17T12:38:19.710Z,1010
2018-12-17T12:39:21.736Z,1010
2018-12-17T12:40:23.774Z,1010
2018-12-17T12:41:25.799Z,1010
2018-12-17T12:42:27.814Z,1010
2018-12-17T12:43:29.837Z,1010
2018-12-17T12:44:31.873Z,1010
2018-12-17T12:45:34.182Z,1010
2018-12-17T12:46:36.206Z,1010
2018-12-17T12:47:38.613Z,1010
2018-12-17T12:48:40.641Z,1010
2018-12-17T12:49:42.657Z,1010
2018-12-17T12:50:44.744Z,1010
2018-12-17T12:51:46.776Z,1010
2018-12-17T12:52:48.789Z,1010
2018-12-17T12:53:51.108Z,1010
2018-12-17T12:54:53.139Z,1010
2018-12-17T12:55:55.165Z,1010
2018-12-17T12:56:57.182Z,1010
2018-12-17T12:58:04.102Z,1010
2018-12-17T12:59:06.200Z,1010.1
2018-12-17T13:00:08.220Z,1010
2018-12-17T13:01:10.544Z,1010
2018-12-17T13:02:12.567Z,1010
2018-12-17T13:03:14.590Z,1010
2018-12-17T13:04:16.904Z,1010
2018-12-17T13:05:18.928Z,1010